Time;durP1;ratioP1;P1;durP2;ratioP2;P2;SDS_P1;SDS_P2;PMS_P1;PMS_P2;Temp;Humidity;BMP_temperature;BMP_pressure;BME280_temperature;BME280_humidity;BME280_pressure;Samples;Min_cycle;Max_cycle;Signal;HPM_P1;HPM_P2
2022/08/26 00:00:52;;;;;;;35.30;25.65;;;;;;;;;;5050881;28;20064;-77
2022/08/26 00:03:18;;;;;;;34.17;23.95;;;;;;;;;;5036506;28;20142;-77
2022/08/26 00:05:45;;;;;;;31.52;21.92;;;;;;;;;;5036791;28;20040;-78
2022/08/26 00:08:12;;;;;;;37.20;23.55;;;;;;;;;;5052897;28;20064;-78
2022/08/26 00:10:39;;;;;;;37.08;23.10;;;;;;;;;;5053529;28;20075;-77
2022/08/26 00:13:05;;;;;;;36.42;23.13;;;;;;;;;;5052310;28;20033;-78
2022/08/26 00:15:31;;;;;;;30.58;21.55;;;;;;;;;;5036607;28;20045;-77
2022/08/26 00:17:58;;;;;;;31.83;21.60;;;;;;;;;;5053135;28;20049;-77
2022/08/26 00:20:25;;;;;;;33.50;20.83;;;;;;;;;;5016847;28;20076;-78
2022/08/26 00:22:51;;;;;;;31.88;19.83;;;;;;;;;;5049967;28;20040;-77
2022/08/26 00:25:18;;;;;;;26.73;18.38;;;;;;;;;;5053110;28;20474;-77
2022/08/26 00:27:44;;;;;;;28.38;17.95;;;;;;;;;;5036801;28;20033;-77
2022/08/26 00:30:13;;;;;;;23.20;17.98;;;;;;;;;;5053886;28;20040;-77
2022/08/26 00:32:39;;;;;;;29.75;18.13;;;;;;;;;;5053465;28;20052;-77
2022/08/26 00:35:06;;;;;;;26.05;16.75;;;;;;;;;;5052354;28;20033;-77
2022/08/26 00:37:32;;;;;;;25.33;16.25;;;;;;;;;;5036802;28;20482;-77
2022/08/26 00:39:58;;;;;;;22.88;16.35;;;;;;;;;;5052284;28;20037;-77
2022/08/26 00:42:26;;;;;;;23.88;15.30;;;;;;;;;;5036392;28;20375;-77
2022/08/26 00:44:52;;;;;;;24.00;15.45;;;;;;;;;;5035700;28;20036;-77
2022/08/26 00:47:32;;;;;;;20.50;14.07;;;;;;;;;;5052780;28;20043;-77
2022/08/26 00:49:59;;;;;;;22.23;14.80;;;;;;;;;;5052468;28;20535;-77
2022/08/26 00:52:25;;;;;;;20.60;12.82;;;;;;;;;;5051787;28;20045;-77
2022/08/26 00:55:02;;;;;;;23.55;13.70;;;;;;;;;;5052667;28;20052;-78
2022/08/26 00:57:28;;;;;;;22.48;13.45;;;;;;;;;;5051353;28;20405;-78
2022/08/26 00:59:57;;;;;;;18.17;12.85;;;;;;;;;;5044648;28;20045;-78
2022/08/26 01:02:23;;;;;;;22.85;12.63;;;;;;;;;;5052168;28;20044;-78
2022/08/26 01:04:59;;;;;;;22.25;12.07;;;;;;;;;;5050632;28;20048;-78
2022/08/26 01:07:26;;;;;;;17.35;12.25;;;;;;;;;;5051752;28;20036;-78
2022/08/26 01:09:52;;;;;;;17.23;12.07;;;;;;;;;;5052515;28;20067;-78
2022/08/26 01:12:19;;;;;;;20.30;11.07;;;;;;;;;;5051890;28;20045;-78
2022/08/26 01:14:46;;;;;;;18.27;10.48;;;;;;;;;;5068802;28;20044;-78
2022/08/26 01:17:12;;;;;;;18.08;10.52;;;;;;;;;;5051354;28;20090;-78
2022/08/26 01:19:41;;;;;;;19.90;11.57;;;;;;;;;;5035376;28;20037;-78
2022/08/26 01:22:26;;;;;;;18.17;11.52;;;;;;;;;;5051952;28;20037;-78
2022/08/26 01:24:52;;;;;;;15.88;10.65;;;;;;;;;;5051953;28;20119;-78
2022/08/26 01:27:20;;;;;;;16.63;10.10;;;;;;;;;;5034538;28;20044;-78
2022/08/26 01:29:47;;;;;;;18.52;9.90;;;;;;;;;;5051800;28;20045;-78
2022/08/26 01:32:14;;;;;;;19.30;9.68;;;;;;;;;;5051516;28;20116;-78
2022/08/26 01:34:41;;;;;;;14.80;8.40;;;;;;;;;;5051465;28;20056;-78
2022/08/26 01:37:07;;;;;;;18.67;8.55;;;;;;;;;;5052180;28;20485;-77
2022/08/26 01:39:34;;;;;;;16.73;7.40;;;;;;;;;;5051366;28;20051;-78
2022/08/26 01:42:01;;;;;;;16.52;8.38;;;;;;;;;;5051563;28;20044;-77
2022/08/26 01:44:30;;;;;;;14.82;7.70;;;;;;;;;;5050834;28;20045;-78
2022/08/26 01:46:56;;;;;;;14.10;7.43;;;;;;;;;;5035150;28;20029;-78
2022/08/26 01:49:23;;;;;;;15.18;7.75;;;;;;;;;;5051103;28;20056;-78
2022/08/26 01:51:51;;;;;;;16.08;7.60;;;;;;;;;;5051758;28;20064;-78
2022/08/26 01:54:17;;;;;;;12.93;6.10;;;;;;;;;;5051287;28;20083;-78
2022/08/26 01:56:43;;;;;;;21.20;6.68;;;;;;;;;;5051489;28;20041;-79
2022/08/26 01:59:12;;;;;;;13.82;5.57;;;;;;;;;;5051384;28;20045;-77
2022/08/26 02:01:38;;;;;;;12.05;5.07;;;;;;;;;;5050562;28;20044;-78
2022/08/26 02:04:07;;;;;;;16.83;5.18;;;;;;;;;;5030155;28;20122;-78
2022/08/26 02:06:33;;;;;;;11.82;5.20;;;;;;;;;;5043194;28;20650;-78
2022/08/26 02:09:00;;;;;;;11.52;4.75;;;;;;;;;;5050448;28;20486;-78
2022/08/26 02:11:26;;;;;;;12.50;5.45;;;;;;;;;;5034369;28;20036;-78
2022/08/26 02:14:00;;;;;;;10.25;4.07;;;;;;;;;;5034809;28;20126;-78
2022/08/26 02:16:28;;;;;;;11.52;4.35;;;;;;;;;;5050308;28;20072;-78
2022/08/26 02:18:55;;;;;;;14.68;4.43;;;;;;;;;;5051382;28;20041;-78
2022/08/26 02:21:21;;;;;;;11.20;3.70;;;;;;;;;;5050752;28;20032;-78
2022/08/26 02:23:47;;;;;;;11.15;3.95;;;;;;;;;;5051392;28;20404;-78
2022/08/26 02:26:16;;;;;;;15.70;4.03;;;;;;;;;;5050789;28;20073;-78
2022/08/26 02:28:46;;;;;;;11.98;3.85;;;;;;;;;;5028370;28;20048;-78
2022/08/26 02:31:12;;;;;;;10.90;3.72;;;;;;;;;;5051107;28;20040;-78
2022/08/26 02:33:38;;;;;;;10.57;3.65;;;;;;;;;;5017697;28;20128;-78
2022/08/26 02:36:05;;;;;;;13.60;3.65;;;;;;;;;;5051168;28;20493;-78
2022/08/26 02:38:31;;;;;;;15.02;3.97;;;;;;;;;;5033662;28;20114;-78
2022/08/26 02:40:57;;;;;;;12.35;3.38;;;;;;;;;;5050564;28;20037;-78
2022/08/26 02:43:23;;;;;;;10.57;2.88;;;;;;;;;;5050400;28;20028;-78
2022/08/26 02:45:49;;;;;;;11.38;2.67;;;;;;;;;;5050840;28;20041;-78
2022/08/26 02:48:17;;;;;;;8.95;2.60;;;;;;;;;;5034487;28;20037;-78
2022/08/26 02:50:43;;;;;;;7.95;2.42;;;;;;;;;;5050490;28;20131;-78
2022/08/26 02:53:09;;;;;;;12.02;3.33;;;;;;;;;;5034122;28;20151;-78
2022/08/26 02:55:35;;;;;;;10.50;2.40;;;;;;;;;;5050426;28;20051;-78
2022/08/26 02:58:01;;;;;;;10.90;2.50;;;;;;;;;;5017549;28;20091;-78
2022/08/26 03:00:28;;;;;;;8.73;2.72;;;;;;;;;;5036559;28;20060;-78
2022/08/26 03:02:54;;;;;;;9.00;2.17;;;;;;;;;;5033924;28;20120;-78
2022/08/26 03:05:22;;;;;;;5.72;2.38;;;;;;;;;;5050353;28;20037;-78
2022/08/26 03:07:48;;;;;;;8.93;2.20;;;;;;;;;;5050435;28;20045;-78
2022/08/26 03:10:15;;;;;;;8.07;2.17;;;;;;;;;;5050849;28;20048;-77
2022/08/26 03:12:44;;;;;;;9.13;2.20;;;;;;;;;;5033555;28;20041;-78
2022/08/26 03:15:10;;;;;;;9.25;2.00;;;;;;;;;;5050654;28;20052;-77
2022/08/26 03:17:36;;;;;;;8.95;1.80;;;;;;;;;;5050346;28;20041;-77
2022/08/26 03:20:07;;;;;;;9.20;1.90;;;;;;;;;;5049910;28;20408;-78
2022/08/26 03:22:33;;;;;;;5.97;1.65;;;;;;;;;;5066971;28;20379;-78
2022/08/26 03:24:59;;;;;;;7.82;1.60;;;;;;;;;;5050892;28;20397;-78
2022/08/26 03:27:25;;;;;;;9.80;1.98;;;;;;;;;;5049946;28;20037;-78
2022/08/26 03:32:36;;;;;;;9.98;1.92;;;;;;;;;;5049342;28;20099;-78
2022/08/26 03:35:02;;;;;;;10.10;2.67;;;;;;;;;;5050369;28;20127;-77
2022/08/26 03:37:28;;;;;;;8.77;1.63;;;;;;;;;;5049958;28;20049;-78
2022/08/26 03:39:54;;;;;;;7.05;1.80;;;;;;;;;;5033333;28;20040;-78
2022/08/26 03:42:20;;;;;;;5.53;1.60;;;;;;;;;;5033626;28;20132;-78
2022/08/26 03:44:47;;;;;;;10.20;1.80;;;;;;;;;;5033393;28;20029;-78
2022/08/26 03:47:13;;;;;;;9.57;1.90;;;;;;;;;;5049744;28;20041;-78
2022/08/26 03:49:40;;;;;;;7.20;1.60;;;;;;;;;;5032740;28;20056;-78
2022/08/26 03:52:06;;;;;;;8.52;1.70;;;;;;;;;;5035668;28;20063;-78
2022/08/26 03:54:33;;;;;;;7.40;1.75;;;;;;;;;;5045476;28;20493;-78
2022/08/26 03:56:59;;;;;;;8.65;1.80;;;;;;;;;;5043871;28;20041;-78
2022/08/26 03:59:25;;;;;;;8.63;1.83;;;;;;;;;;5053467;28;20095;-78
2022/08/26 04:01:51;;;;;;;9.15;1.92;;;;;;;;;;5036121;28;20042;-77
2022/08/26 04:04:18;;;;;;;8.48;1.90;;;;;;;;;;5039128;28;20072;-78
2022/08/26 04:06:44;;;;;;;9.70;1.85;;;;;;;;;;5036529;28;20091;-79
2022/08/26 04:09:12;;;;;;;12.52;2.17;;;;;;;;;;5051400;28;20044;-78
2022/08/26 04:11:38;;;;;;;9.98;1.75;;;;;;;;;;5052149;28;20076;-78
2022/08/26 04:14:12;;;;;;;4.65;1.40;;;;;;;;;;5064861;28;20037;-77
2022/08/26 04:16:40;;;;;;;10.30;2.10;;;;;;;;;;5045406;28;20521;-77
2022/08/26 04:19:06;;;;;;;11.40;2.33;;;;;;;;;;5049649;28;20110;-77
2022/08/26 04:21:33;;;;;;;12.27;1.75;;;;;;;;;;5043055;28;20071;-78
2022/08/26 04:23:59;;;;;;;11.60;2.20;;;;;;;;;;5046974;28;20037;-77
2022/08/26 04:26:25;;;;;;;13.45;2.83;;;;;;;;;;5042043;28;20635;-78
2022/08/26 04:28:52;;;;;;;11.60;2.17;;;;;;;;;;5046745;28;20049;-78
2022/08/26 04:31:18;;;;;;;10.00;2.28;;;;;;;;;;5043355;28;20041;-78
2022/08/26 04:33:45;;;;;;;9.35;2.17;;;;;;;;;;5042767;28;20119;-78
2022/08/26 04:36:12;;;;;;;9.57;1.80;;;;;;;;;;5034051;28;20048;-78
2022/08/26 04:38:38;;;;;;;9.95;2.38;;;;;;;;;;5043330;28;20124;-78
2022/08/26 04:41:06;;;;;;;7.35;1.88;;;;;;;;;;5052361;28;20116;-78
2022/08/26 04:43:32;;;;;;;13.40;2.25;;;;;;;;;;5047074;28;20033;-77
2022/08/26 04:46:00;;;;;;;13.13;2.00;;;;;;;;;;5052908;28;20494;-80
2022/08/26 04:48:27;;;;;;;9.73;2.00;;;;;;;;;;5051327;28;20497;-80
2022/08/26 04:50:53;;;;;;;11.32;2.10;;;;;;;;;;5042477;28;20065;-80
2022/08/26 04:53:19;;;;;;;11.13;2.22;;;;;;;;;;5033026;28;20046;-79
2022/08/26 04:55:45;;;;;;;12.95;2.05;;;;;;;;;;5048795;28;20128;-80
2022/08/26 04:58:14;;;;;;;13.38;2.05;;;;;;;;;;5051657;28;20045;-80
2022/08/26 05:00:40;;;;;;;14.43;2.35;;;;;;;;;;5039282;28;20128;-80
2022/08/26 05:03:06;;;;;;;10.65;2.05;;;;;;;;;;5052414;28;20037;-80
2022/08/26 05:05:32;;;;;;;11.43;2.22;;;;;;;;;;5038366;28;20132;-80
2022/08/26 05:07:58;;;;;;;10.60;2.05;;;;;;;;;;5034812;28;20052;-78
2022/08/26 05:10:24;;;;;;;7.72;1.88;;;;;;;;;;5035890;28;20045;-79
2022/08/26 05:12:50;;;;;;;9.68;2.15;;;;;;;;;;5039334;28;20077;-80
2022/08/26 05:15:16;;;;;;;13.18;2.28;;;;;;;;;;5051518;28;20037;-80
2022/08/26 05:17:43;;;;;;;12.55;2.55;;;;;;;;;;5035268;28;20040;-78
2022/08/26 05:20:09;;;;;;;12.50;2.67;;;;;;;;;;5051805;28;20072;-78
2022/08/26 05:22:35;;;;;;;9.63;2.00;;;;;;;;;;5034247;28;20039;-78
2022/08/26 05:25:01;;;;;;;11.32;2.08;;;;;;;;;;5035232;28;20095;-77
2022/08/26 05:27:28;;;;;;;11.63;2.25;;;;;;;;;;5052519;28;20120;-78
2022/08/26 05:29:56;;;;;;;8.98;2.10;;;;;;;;;;5051869;28;20557;-78
2022/08/26 05:32:22;;;;;;;8.50;1.95;;;;;;;;;;5051737;28;20053;-78
2022/08/26 05:34:52;;;;;;;12.20;1.90;;;;;;;;;;5051410;28;20148;-78
2022/08/26 05:37:18;;;;;;;7.75;1.83;;;;;;;;;;5035270;28;20047;-78
2022/08/26 05:39:44;;;;;;;9.35;2.00;;;;;;;;;;5050973;28;20123;-79
2022/08/26 05:42:11;;;;;;;10.73;2.40;;;;;;;;;;5035577;28;20485;-78
2022/08/26 05:44:37;;;;;;;7.20;1.75;;;;;;;;;;5051166;28;20045;-78
2022/08/26 05:47:03;;;;;;;9.38;1.88;;;;;;;;;;5051285;28;20052;-78
2022/08/26 05:49:29;;;;;;;10.50;2.00;;;;;;;;;;5051967;28;20060;-79
2022/08/26 05:51:55;;;;;;;9.48;2.00;;;;;;;;;;5051305;28;20056;-79
2022/08/26 05:54:21;;;;;;;14.93;2.42;;;;;;;;;;5051834;28;20504;-79
2022/08/26 05:56:48;;;;;;;9.20;1.92;;;;;;;;;;5051326;28;20382;-80
2022/08/26 05:59:14;;;;;;;14.70;2.28;;;;;;;;;;5051261;28;20059;-80
2022/08/26 06:01:41;;;;;;;13.93;2.13;;;;;;;;;;5034532;28;20051;-80
2022/08/26 06:04:07;;;;;;;8.60;2.05;;;;;;;;;;5035270;28;20104;-80
2022/08/26 06:06:34;;;;;;;10.07;1.90;;;;;;;;;;5051504;28;20037;-79
2022/08/26 06:09:02;;;;;;;9.93;1.63;;;;;;;;;;5051122;28;20048;-80
2022/08/26 06:11:31;;;;;;;8.10;1.70;;;;;;;;;;5051578;28;20052;-85
2022/08/26 06:13:58;;;;;;;6.28;1.67;;;;;;;;;;5051574;28;20041;-85
2022/08/26 06:16:24;;;;;;;6.20;1.95;;;;;;;;;;5051875;28;20102;-84
2022/08/26 06:18:52;;;;;;;7.18;2.00;;;;;;;;;;5034445;28;20053;-84
2022/08/26 06:21:20;;;;;;;8.45;1.80;;;;;;;;;;5051701;28;20090;-84
2022/08/26 06:26:32;;;;;;;7.00;1.60;;;;;;;;;;5041105;28;20120;-84
2022/08/26 06:28:59;;;;;;;6.53;1.38;;;;;;;;;;5038969;28;20041;-85
2022/08/26 06:31:25;;;;;;;11.00;1.60;;;;;;;;;;5038126;28;20076;-84
2022/08/26 06:33:51;;;;;;;8.40;1.75;;;;;;;;;;5045775;28;20411;-84
2022/08/26 06:36:23;;;;;;;7.65;1.70;;;;;;;;;;5049003;28;20064;-85
2022/08/26 06:38:49;;;;;;;7.90;1.63;;;;;;;;;;5044959;28;20041;-84
2022/08/26 06:41:16;;;;;;;8.95;1.80;;;;;;;;;;5040404;28;20045;-83
2022/08/26 06:43:43;;;;;;;12.10;2.45;;;;;;;;;;5041766;28;20091;-85
2022/08/26 06:46:10;;;;;;;9.35;1.70;;;;;;;;;;5050768;28;20047;-83
2022/08/26 06:48:37;;;;;;;9.35;1.77;;;;;;;;;;5045383;28;20038;-84
2022/08/26 06:51:08;;;;;;;11.77;1.70;;;;;;;;;;5044591;28;20087;-82
2022/08/26 06:53:40;;;;;;;12.32;2.15;;;;;;;;;;5039810;28;20455;-83
2022/08/26 06:56:08;;;;;;;10.75;1.73;;;;;;;;;;5042922;28;20513;-84
2022/08/26 06:58:34;;;;;;;9.38;1.40;;;;;;;;;;5049671;28;20544;-85
2022/08/26 07:01:01;;;;;;;10.23;1.92;;;;;;;;;;5049175;28;20041;-84
2022/08/26 07:03:27;;;;;;;13.00;1.92;;;;;;;;;;5033149;28;20052;-84
2022/08/26 07:06:00;;;;;;;9.45;1.40;;;;;;;;;;5051242;28;20037;-84
2022/08/26 07:08:26;;;;;;;10.15;1.75;;;;;;;;;;5047772;28;20068;-85
2022/08/26 07:10:52;;;;;;;10.82;1.77;;;;;;;;;;5049232;28;20041;-85
2022/08/26 07:13:19;;;;;;;7.00;1.35;;;;;;;;;;5017898;28;20079;-84
2022/08/26 07:15:45;;;;;;;8.32;1.33;;;;;;;;;;5064415;28;20049;-84
2022/08/26 07:18:11;;;;;;;8.35;1.60;;;;;;;;;;5050666;28;20044;-84
2022/08/26 07:20:39;;;;;;;11.02;1.42;;;;;;;;;;5034412;28;20044;-82
2022/08/26 07:23:06;;;;;;;7.22;1.70;;;;;;;;;;5043738;28;20053;-84
2022/08/26 07:25:32;;;;;;;10.18;1.92;;;;;;;;;;5051473;28;20087;-85
2022/08/26 07:27:58;;;;;;;10.95;1.60;;;;;;;;;;5051828;28;20044;-85
2022/08/26 07:30:25;;;;;;;10.10;1.77;;;;;;;;;;5054274;28;20040;-84
2022/08/26 07:32:51;;;;;;;10.65;1.50;;;;;;;;;;5041687;28;20049;-86
2022/08/26 07:35:17;;;;;;;7.20;1.23;;;;;;;;;;5043359;28;20049;-83
2022/08/26 07:37:43;;;;;;;8.60;1.52;;;;;;;;;;5047029;28;20041;-84
2022/08/26 07:40:10;;;;;;;8.70;1.40;;;;;;;;;;5050297;28;20063;-84
2022/08/26 07:42:36;;;;;;;9.63;1.95;;;;;;;;;;5053568;28;20111;-88
2022/08/26 07:45:03;;;;;;;12.68;1.60;;;;;;;;;;5047367;28;20033;-84
2022/08/26 07:47:29;;;;;;;8.23;1.40;;;;;;;;;;5054143;28;20116;-84
2022/08/26 07:49:56;;;;;;;8.02;1.48;;;;;;;;;;5020972;28;20057;-84
2022/08/26 07:52:22;;;;;;;8.50;1.52;;;;;;;;;;5043334;28;20045;-81
2022/08/26 07:54:49;;;;;;;9.82;1.60;;;;;;;;;;5030843;28;20413;-84
2022/08/26 07:57:15;;;;;;;9.75;1.58;;;;;;;;;;5054150;28;20055;-82
2022/08/26 07:59:41;;;;;;;7.35;1.50;;;;;;;;;;5054643;28;20045;-86
2022/08/26 08:02:07;;;;;;;7.63;1.38;;;;;;;;;;5041229;28;20144;-86
2022/08/26 08:04:34;;;;;;;10.82;1.55;;;;;;;;;;5032035;28;20371;-86
2022/08/26 08:07:00;;;;;;;18.95;1.67;;;;;;;;;;5049894;28;20091;-85
2022/08/26 08:09:27;;;;;;;8.48;1.73;;;;;;;;;;5044896;28;20094;-85
2022/08/26 08:11:54;;;;;;;7.70;1.70;;;;;;;;;;5053022;28;20045;-84
2022/08/26 08:14:20;;;;;;;9.55;1.52;;;;;;;;;;5067839;28;20044;-84
2022/08/26 08:16:46;;;;;;;4.68;1.20;;;;;;;;;;5051254;28;20043;-82
2022/08/26 08:19:12;;;;;;;8.07;1.48;;;;;;;;;;5052351;28;20041;-81
2022/08/26 08:21:39;;;;;;;8.45;1.50;;;;;;;;;;5052244;28;20037;-81
2022/08/26 08:24:05;;;;;;;7.68;1.40;;;;;;;;;;5048404;28;20045;-79
2022/08/26 08:26:31;;;;;;;9.15;1.50;;;;;;;;;;5042747;28;20032;-80
2022/08/26 08:28:57;;;;;;;6.20;1.50;;;;;;;;;;5041286;28;20049;-80
2022/08/26 08:31:28;;;;;;;7.97;1.10;;;;;;;;;;5049626;28;20037;-86
2022/08/26 08:33:54;;;;;;;6.22;1.40;;;;;;;;;;5035601;28;20555;-79
2022/08/26 08:36:21;;;;;;;11.02;1.52;;;;;;;;;;5051302;28;20040;-81
2022/08/26 08:38:47;;;;;;;8.40;1.50;;;;;;;;;;5036690;28;20405;-81
2022/08/26 08:41:36;;;;;;;9.30;1.50;;;;;;;;;;5050108;28;20052;-80
2022/08/26 08:44:03;;;;;;;9.73;1.50;;;;;;;;;;5051763;28;20393;-80
2022/08/26 08:46:29;;;;;;;7.28;1.20;;;;;;;;;;5035023;28;20144;-78
2022/08/26 08:48:58;;;;;;;7.78;1.25;;;;;;;;;;5045122;28;20048;-80
2022/08/26 08:51:44;;;;;;;7.45;1.40;;;;;;;;;;5050471;28;20044;-78
2022/08/26 08:54:11;;;;;;;9.07;1.20;;;;;;;;;;5051601;28;20041;-85
2022/08/26 08:56:39;;;;;;;7.03;1.08;;;;;;;;;;5034505;28;20402;-80
2022/08/26 08:59:22;;;;;;;7.18;1.02;;;;;;;;;;5044460;28;20053;-80
2022/08/26 09:02:02;;;;;;;6.53;1.27;;;;;;;;;;5049165;28;20487;-79
2022/08/26 09:04:54;;;;;;;11.57;1.35;;;;;;;;;;5050512;28;20643;-78
2022/08/26 09:07:23;;;;;;;10.45;1.65;;;;;;;;;;5048487;28;20060;-80
2022/08/26 09:09:56;;;;;;;7.45;1.13;;;;;;;;;;5034504;28;20040;-79
2022/08/26 09:12:24;;;;;;;6.03;1.33;;;;;;;;;;5050942;28;20053;-80
2022/08/26 09:14:53;;;;;;;5.40;1.25;;;;;;;;;;5035447;28;20044;-76
2022/08/26 09:17:22;;;;;;;8.00;1.33;;;;;;;;;;5051567;28;20114;-78
2022/08/26 09:19:51;;;;;;;5.55;1.08;;;;;;;;;;5051494;28;20053;-81
2022/08/26 09:22:30;;;;;;;14.60;1.27;;;;;;;;;;5051992;28;20036;-80
2022/08/26 09:24:56;;;;;;;9.30;1.30;;;;;;;;;;5062606;28;20075;-79
2022/08/26 09:27:36;;;;;;;7.85;1.30;;;;;;;;;;5051950;28;20045;-80
2022/08/26 09:30:03;;;;;;;5.80;1.00;;;;;;;;;;5050355;28;20049;-79
2022/08/26 09:32:30;;;;;;;7.63;1.30;;;;;;;;;;5034446;28;20485;-80
2022/08/26 09:35:06;;;;;;;9.75;1.20;;;;;;;;;;5036920;28;20045;-79
2022/08/26 09:37:37;;;;;;;7.00;1.10;;;;;;;;;;5051339;28;20475;-81
2022/08/26 09:40:16;;;;;;;4.53;0.82;;;;;;;;;;5051464;28;20076;-81
2022/08/26 09:42:42;;;;;;;4.97;1.00;;;;;;;;;;5034153;28;20162;-82
2022/08/26 09:45:09;;;;;;;8.10;1.10;;;;;;;;;;5033211;28;20037;-80
2022/08/26 09:47:40;;;;;;;5.07;0.80;;;;;;;;;;5049729;28;20075;-79
2022/08/26 09:50:10;;;;;;;7.57;1.00;;;;;;;;;;5050424;28;20045;-79
2022/08/26 09:52:36;;;;;;;6.38;0.90;;;;;;;;;;5049298;28;20041;-77
2022/08/26 09:55:11;;;;;;;5.53;0.90;;;;;;;;;;5050490;28;20041;-75
2022/08/26 09:57:47;;;;;;;8.48;1.10;;;;;;;;;;5050690;28;20096;-77
2022/08/26 10:00:36;;;;;;;5.43;0.90;;;;;;;;;;5033901;28;20049;-77
2022/08/26 10:03:04;;;;;;;8.43;0.85;;;;;;;;;;5044022;28;20498;-77
2022/08/26 10:05:30;;;;;;;4.22;0.75;;;;;;;;;;5044068;28;20037;-77
2022/08/26 10:07:56;;;;;;;6.63;1.08;;;;;;;;;;5051020;28;20583;-77
2022/08/26 10:10:25;;;;;;;7.97;1.10;;;;;;;;;;5034197;28;20489;-77
2022/08/26 10:13:01;;;;;;;8.82;1.00;;;;;;;;;;5039558;28;20045;-77
2022/08/26 10:15:29;;;;;;;7.22;1.20;;;;;;;;;;5047587;28;20053;-77
2022/08/26 10:18:01;;;;;;;8.20;1.40;;;;;;;;;;5049683;28;20534;-75
2022/08/26 10:20:28;;;;;;;6.22;1.40;;;;;;;;;;5032461;28;20048;-77
2022/08/26 10:23:02;;;;;;;5.78;1.40;;;;;;;;;;5047201;28;20037;-77
2022/08/26 10:25:31;;;;;;;6.55;1.10;;;;;;;;;;5066293;28;20033;-77
2022/08/26 10:28:04;;;;;;;15.00;2.47;;;;;;;;;;5048309;28;20700;-77
2022/08/26 10:30:37;;;;;;;10.55;1.30;;;;;;;;;;5049557;28;20040;-77
2022/08/26 10:33:05;;;;;;;7.30;1.00;;;;;;;;;;5061292;28;20045;-77
2022/08/26 10:35:34;;;;;;;4.72;0.90;;;;;;;;;;5048281;28;20041;-76
2022/08/26 10:38:03;;;;;;;5.38;1.25;;;;;;;;;;5048030;28;20068;-77
2022/08/26 10:40:34;;;;;;;6.32;1.10;;;;;;;;;;5049452;28;20041;-77
2022/08/26 10:43:19;;;;;;;4.35;1.00;;;;;;;;;;5046550;28;20124;-77
2022/08/26 10:45:50;;;;;;;8.07;1.20;;;;;;;;;;5048343;28;20041;-77
2022/08/26 10:48:31;;;;;;;6.85;1.45;;;;;;;;;;5049739;28;20036;-78
2022/08/26 10:50:58;;;;;;;9.68;1.30;;;;;;;;;;5039545;28;20057;-78
2022/08/26 10:53:24;;;;;;;7.53;1.23;;;;;;;;;;5046596;28;20191;-76
2022/08/26 10:55:59;;;;;;;10.50;1.30;;;;;;;;;;5057704;28;20048;-77
2022/08/26 10:58:25;;;;;;;;;;;;;;;;;;5039593;28;20041;-77
2022/08/26 11:03:55;;;;;;;6.25;1.13;;;;;;;;;;5041199;28;19931;-77
2022/08/26 11:06:22;;;;;;;4.18;1.05;;;;;;;;;;5055812;28;20040;-78
2022/08/26 11:08:56;;;;;;;7.75;1.30;;;;;;;;;;5036146;28;20500;-78
2022/08/26 11:11:40;;;;;;;5.13;1.30;;;;;;;;;;5046119;28;20159;-78
2022/08/26 11:14:08;;;;;;;4.95;1.00;;;;;;;;;;5048057;28;20048;-78
2022/08/26 11:16:38;;;;;;;6.25;1.38;;;;;;;;;;5053687;28;20086;-77
2022/08/26 11:19:06;;;;;;;3.97;0.90;;;;;;;;;;5051712;28;20547;-77
2022/08/26 11:21:43;;;;;;;4.95;0.80;;;;;;;;;;5054949;28;20478;-78
2022/08/26 11:24:09;;;;;;;4.72;1.08;;;;;;;;;;5052096;28;20059;-77
2022/08/26 11:26:36;;;;;;;3.55;0.90;;;;;;;;;;5053020;28;20119;-77
2022/08/26 11:29:02;;;;;;;5.38;1.10;;;;;;;;;;5069594;28;20048;-77
2022/08/26 11:31:29;;;;;;;3.75;0.93;;;;;;;;;;5034999;28;20094;-76
2022/08/26 11:33:59;;;;;;;6.32;1.10;;;;;;;;;;5052184;28;20052;-77
2022/08/26 11:36:31;;;;;;;6.78;1.20;;;;;;;;;;5029235;28;20045;-77
2022/08/26 11:38:57;;;;;;;5.82;1.13;;;;;;;;;;5053576;28;20489;-77
2022/08/26 11:41:28;;;;;;;4.20;1.08;;;;;;;;;;5050991;28;20116;-77
2022/08/26 11:43:55;;;;;;;7.20;1.25;;;;;;;;;;5041989;28;20048;-77
2022/08/26 11:46:26;;;;;;;4.13;0.90;;;;;;;;;;5058414;28;20091;-77
2022/08/26 11:49:00;;;;;;;6.22;1.05;;;;;;;;;;5051883;28;20044;-78
2022/08/26 11:51:26;;;;;;;7.65;1.45;;;;;;;;;;5053057;28;20057;-77
2022/08/26 11:54:07;;;;;;;7.97;0.80;;;;;;;;;;5052234;28;20397;-78
2022/08/26 11:56:35;;;;;;;7.75;1.10;;;;;;;;;;5030736;28;20037;-76
2022/08/26 11:59:03;;;;;;;5.47;0.90;;;;;;;;;;5043816;28;20040;-75
2022/08/26 12:01:34;;;;;;;5.25;1.08;;;;;;;;;;5039870;28;20045;-76
2022/08/26 12:04:02;;;;;;;8.70;1.27;;;;;;;;;;5041476;28;20123;-78
2022/08/26 12:06:35;;;;;;;6.85;1.20;;;;;;;;;;5061431;28;20567;-79
2022/08/26 12:09:04;;;;;;;10.57;1.30;;;;;;;;;;5052630;28;20068;-79
2022/08/26 12:11:32;;;;;;;7.60;1.20;;;;;;;;;;5054028;28;20041;-76
2022/08/26 12:14:03;;;;;;;8.05;1.25;;;;;;;;;;5053135;28;20044;-78
2022/08/26 12:16:31;;;;;;;6.35;1.10;;;;;;;;;;5052931;28;20033;-76
2022/08/26 12:18:57;;;;;;;6.53;1.02;;;;;;;;;;5050044;28;20043;-75
2022/08/26 12:21:28;;;;;;;6.63;1.35;;;;;;;;;;5045362;28;20039;-76
2022/08/26 12:23:55;;;;;;;7.78;1.23;;;;;;;;;;5038362;28;20040;-76
2022/08/26 12:26:23;;;;;;;7.38;1.20;;;;;;;;;;5035506;28;20029;-76
2022/08/26 12:29:01;;;;;;;6.22;1.70;;;;;;;;;;5052396;28;20045;-76
2022/08/26 12:31:31;;;;;;;9.30;1.50;;;;;;;;;;5036829;28;20125;-76
2022/08/26 12:33:58;;;;;;;16.00;1.83;;;;;;;;;;5048825;28;20045;-76
2022/08/26 12:36:30;;;;;;;7.70;1.50;;;;;;;;;;5045269;28;20486;-76
2022/08/26 12:38:56;;;;;;;6.80;1.25;;;;;;;;;;5042911;28;20409;-75
2022/08/26 12:41:58;;;;;;;9.63;1.80;;;;;;;;;;5032062;28;20065;-75
2022/08/26 12:44:31;;;;;;;7.22;1.58;;;;;;;;;;5000696;28;20034;-80
2022/08/26 12:47:21;;;;;;;10.43;2.05;;;;;;;;;;5042711;28;20091;-80
2022/08/26 12:49:48;;;;;;;7.05;1.48;;;;;;;;;;5028485;28;20052;-77
2022/08/26 12:52:28;;;;;;;10.45;1.73;;;;;;;;;;5047298;28;20037;-76
2022/08/26 12:54:59;;;;;;;6.05;1.67;;;;;;;;;;5031455;28;20069;-77
2022/08/26 12:57:27;;;;;;;8.15;1.10;;;;;;;;;;5044494;28;20048;-76
2022/08/26 12:59:53;;;;;;;8.57;1.70;;;;;;;;;;5041638;28;20076;-76
2022/08/26 13:02:36;;;;;;;5.82;1.30;;;;;;;;;;5046432;28;20131;-74
2022/08/26 13:05:02;;;;;;;8.20;1.05;;;;;;;;;;5032527;28;20037;-75
2022/08/26 13:07:28;;;;;;;5.53;1.10;;;;;;;;;;5051165;28;20033;-76
2022/08/26 13:09:56;;;;;;;5.88;1.30;;;;;;;;;;5052199;28;20045;-76
2022/08/26 13:12:23;;;;;;;8.25;1.20;;;;;;;;;;5051879;28;20105;-76
2022/08/26 13:14:49;;;;;;;7.53;1.35;;;;;;;;;;5035527;28;20041;-76
2022/08/26 13:17:16;;;;;;;5.45;1.30;;;;;;;;;;5035420;28;20127;-76
2022/08/26 13:19:42;;;;;;;5.95;1.60;;;;;;;;;;5035737;28;20040;-76
2022/08/26 13:22:11;;;;;;;5.95;1.70;;;;;;;;;;5035086;28;20124;-74
2022/08/26 13:24:39;;;;;;;5.78;1.25;;;;;;;;;;5052954;28;20041;-75
2022/08/26 13:27:06;;;;;;;6.28;1.60;;;;;;;;;;5052084;28;20107;-76
2022/08/26 13:29:32;;;;;;;8.27;1.40;;;;;;;;;;5051664;28;20064;-76
2022/08/26 13:31:59;;;;;;;8.50;1.58;;;;;;;;;;5035252;28;20040;-76
2022/08/26 13:34:25;;;;;;;12.07;2.65;;;;;;;;;;5051911;28;20036;-76
2022/08/26 13:36:53;;;;;;;7.63;1.60;;;;;;;;;;5051960;28;20048;-75
2022/08/26 13:39:19;;;;;;;6.40;1.73;;;;;;;;;;5035223;28;20495;-75
2022/08/26 13:41:45;;;;;;;5.10;1.20;;;;;;;;;;5035587;28;20044;-75
2022/08/26 13:44:12;;;;;;;4.30;1.70;;;;;;;;;;5052080;28;20041;-75
2022/08/26 13:46:38;;;;;;;7.32;1.48;;;;;;;;;;5051296;28;20124;-75
2022/08/26 13:49:05;;;;;;;4.60;1.50;;;;;;;;;;5035269;28;20128;-76
2022/08/26 13:51:32;;;;;;;5.47;1.63;;;;;;;;;;5051164;28;20051;-76
2022/08/26 13:53:58;;;;;;;5.82;1.50;;;;;;;;;;5051756;28;20076;-76
2022/08/26 13:56:26;;;;;;;8.45;1.65;;;;;;;;;;5051209;28;20444;-76
2022/08/26 13:58:52;;;;;;;5.25;1.45;;;;;;;;;;5034854;28;20045;-76
2022/08/26 14:01:18;;;;;;;5.80;1.52;;;;;;;;;;5051794;28;20072;-76
2022/08/26 14:03:45;;;;;;;6.80;1.58;;;;;;;;;;5037276;28;20485;-76
2022/08/26 14:06:11;;;;;;;4.50;1.30;;;;;;;;;;5051717;28;20048;-75
2022/08/26 14:08:37;;;;;;;4.97;1.35;;;;;;;;;;5050831;28;20072;-75
2022/08/26 14:11:03;;;;;;;4.82;1.38;;;;;;;;;;5035198;28;20068;-76
2022/08/26 14:13:29;;;;;;;6.75;1.30;;;;;;;;;;5051141;28;20405;-76
2022/08/26 14:15:58;;;;;;;4.13;1.23;;;;;;;;;;5052528;28;20044;-75
2022/08/26 14:18:28;;;;;;;4.82;1.00;;;;;;;;;;5050965;28;20044;-75
2022/08/26 14:20:54;;;;;;;7.25;1.10;;;;;;;;;;5051286;28;20041;-75
2022/08/26 14:23:21;;;;;;;4.40;1.00;;;;;;;;;;5034642;28;20047;-76
2022/08/26 14:25:47;;;;;;;4.57;1.70;;;;;;;;;;5052064;28;20056;-75
2022/08/26 14:28:13;;;;;;;8.55;1.27;;;;;;;;;;5034516;28;20033;-76
2022/08/26 14:30:40;;;;;;;4.28;1.10;;;;;;;;;;5050954;28;20509;-75
2022/08/26 14:33:09;;;;;;;7.68;1.20;;;;;;;;;;5050629;28;20511;-75
2022/08/26 14:35:35;;;;;;;6.47;1.20;;;;;;;;;;5050915;28;20052;-75
2022/08/26 14:38:01;;;;;;;5.95;1.10;;;;;;;;;;5050768;28;20045;-75
2022/08/26 14:40:29;;;;;;;6.82;1.23;;;;;;;;;;5050695;28;20119;-75
2022/08/26 14:42:56;;;;;;;8.85;1.58;;;;;;;;;;5034587;28;20045;-75
2022/08/26 14:45:23;;;;;;;6.32;1.23;;;;;;;;;;5034668;28;20082;-75
2022/08/26 14:47:50;;;;;;;3.70;1.00;;;;;;;;;;5050335;28;20047;-75
2022/08/26 14:50:18;;;;;;;4.35;1.33;;;;;;;;;;5050834;28;20473;-76
2022/08/26 14:55:31;;;;;;;5.18;1.30;;;;;;;;;;5053596;28;20072;-75